sensor_id;sensor_type;location;lat;lon;timestamp;temperature;humidity
21312;DHT22;18076;52.154;10.570;2023-07-30T00:01:51;16.90;99.90
21312;DHT22;18076;52.154;10.570;2023-07-30T00:04:16;16.90;99.90
21312;DHT22;18076;52.154;10.570;2023-07-30T00:06:42;16.90;99.90
21312;DHT22;18076;52.154;10.570;2023-07-30T00:09:07;16.80;99.90
21312;DHT22;18076;52.154;10.570;2023-07-30T00:11:33;16.80;99.90
21312;DHT22;18076;52.154;10.570;2023-07-30T00:13:58;16.80;99.90
21312;DHT22;18076;52.154;10.570;2023-07-30T00:16:27;16.80;99.90
21312;DHT22;18076;52.154;10.570;2023-07-30T00:18:52;16.80;99.90
21312;DHT22;18076;52.154;10.570;2023-07-30T00:21:18;16.80;99.90
21312;DHT22;18076;52.154;10.570;2023-07-30T00:23:43;16.70;99.90
21312;DHT22;18076;52.154;10.570;2023-07-30T00:26:09;16.70;99.90
21312;DHT22;18076;52.154;10.570;2023-07-30T00:28:34;16.60;99.90
21312;DHT22;18076;52.154;10.570;2023-07-30T00:31:00;16.50;99.90
21312;DHT22;18076;52.154;10.570;2023-07-30T00:33:25;16.50;99.90
21312;DHT22;18076;52.154;10.570;2023-07-30T00:35:51;16.50;99.90
21312;DHT22;18076;52.154;10.570;2023-07-30T00:38:18;16.40;99.90
21312;DHT22;18076;52.154;10.570;2023-07-30T00:40:44;16.50;99.90
21312;DHT22;18076;52.154;10.570;2023-07-30T00:43:09;16.50;99.90
21312;DHT22;18076;52.154;10.570;2023-07-30T00:45:35;16.50;99.90
21312;DHT22;18076;52.154;10.570;2023-07-30T00:48:01;16.50;99.90
21312;DHT22;18076;52.154;10.570;2023-07-30T00:50:27;16.60;99.90
21312;DHT22;18076;52.154;10.570;2023-07-30T00:52:52;16.60;99.90
21312;DHT22;18076;52.154;10.570;2023-07-30T00:55:18;16.50;99.90
21312;DHT22;18076;52.154;10.570;2023-07-30T00:57:43;16.50;99.90
21312;DHT22;18076;52.154;10.570;2023-07-30T01:00:10;16.50;99.90
21312;DHT22;18076;52.154;10.570;2023-07-30T01:02:36;16.50;99.90
21312;DHT22;18076;52.154;10.570;2023-07-30T01:05:02;16.50;99.90
21312;DHT22;18076;52.154;10.570;2023-07-30T01:07:29;16.40;99.90
21312;DHT22;18076;52.154;10.570;2023-07-30T01:09:55;16.40;99.90
21312;DHT22;18076;52.154;10.570;2023-07-30T01:12:21;16.40;99.90
21312;DHT22;18076;52.154;10.570;2023-07-30T01:14:46;16.40;99.90
21312;DHT22;18076;52.154;10.570;2023-07-30T01:17:13;16.40;99.90
21312;DHT22;18076;52.154;10.570;2023-07-30T01:19:38;16.30;99.90
21312;DHT22;18076;52.154;10.570;2023-07-30T01:22:04;16.30;99.90
21312;DHT22;18076;52.154;10.570;2023-07-30T01:24:30;16.30;99.90
21312;DHT22;18076;52.154;10.570;2023-07-30T01:26:56;16.30;99.90
21312;DHT22;18076;52.154;10.570;2023-07-30T01:29:28;16.30;99.90
21312;DHT22;18076;52.154;10.570;2023-07-30T01:31:56;16.40;99.90
21312;DHT22;18076;52.154;10.570;2023-07-30T01:34:23;16.40;99.90
21312;DHT22;18076;52.154;10.570;2023-07-30T01:36:49;16.50;99.90
21312;DHT22;18076;52.154;10.570;2023-07-30T01:39:15;16.50;99.90
21312;DHT22;18076;52.154;10.570;2023-07-30T01:41:41;16.60;99.90
21312;DHT22;18076;52.154;10.570;2023-07-30T01:44:06;16.70;99.90
21312;DHT22;18076;52.154;10.570;2023-07-30T01:46:32;16.80;99.90
21312;DHT22;18076;52.154;10.570;2023-07-30T01:48:57;16.90;99.90
21312;DHT22;18076;52.154;10.570;2023-07-30T01:51:23;17.00;99.90
21312;DHT22;18076;52.154;10.570;2023-07-30T01:53:48;17.20;99.90
21312;DHT22;18076;52.154;10.570;2023-07-30T01:56:14;17.20;99.90
21312;DHT22;18076;52.154;10.570;2023-07-30T01:58:39;17.30;99.90
21312;DHT22;18076;52.154;10.570;2023-07-30T02:01:05;17.30;99.90
21312;DHT22;18076;52.154;10.570;2023-07-30T02:03:30;17.40;99.90
21312;DHT22;18076;52.154;10.570;2023-07-30T02:05:56;17.50;99.90
21312;DHT22;18076;52.154;10.570;2023-07-30T02:08:21;17.50;99.90
21312;DHT22;18076;52.154;10.570;2023-07-30T02:10:57;17.60;99.90
21312;DHT22;18076;52.154;10.570;2023-07-30T02:13:23;17.70;99.90
21312;DHT22;18076;52.154;10.570;2023-07-30T02:15:48;17.70;99.90
21312;DHT22;18076;52.154;10.570;2023-07-30T02:18:14;17.80;99.90
21312;DHT22;18076;52.154;10.570;2023-07-30T02:20:39;17.80;99.90
21312;DHT22;18076;52.154;10.570;2023-07-30T02:23:05;17.80;99.90
21312;DHT22;18076;52.154;10.570;2023-07-30T02:25:30;17.80;99.90
21312;DHT22;18076;52.154;10.570;2023-07-30T02:27:56;17.70;99.90
21312;DHT22;18076;52.154;10.570;2023-07-30T02:30:22;17.70;99.90
21312;DHT22;18076;52.154;10.570;2023-07-30T02:32:47;17.70;99.90
21312;DHT22;18076;52.154;10.570;2023-07-30T02:35:13;17.70;99.90
21312;DHT22;18076;52.154;10.570;2023-07-30T02:37:38;17.70;99.90
21312;DHT22;18076;52.154;10.570;2023-07-30T02:40:04;17.60;99.90
21312;DHT22;18076;52.154;10.570;2023-07-30T02:42:30;17.60;99.90
21312;DHT22;18076;52.154;10.570;2023-07-30T02:44:56;17.50;99.90
21312;DHT22;18076;52.154;10.570;2023-07-30T02:47:21;17.50;99.90
21312;DHT22;18076;52.154;10.570;2023-07-30T02:49:47;17.50;99.90
21312;DHT22;18076;52.154;10.570;2023-07-30T02:52:12;17.40;99.90
21312;DHT22;18076;52.154;10.570;2023-07-30T02:54:38;17.20;99.90
21312;DHT22;18076;52.154;10.570;2023-07-30T02:57:03;17.20;99.90
21312;DHT22;18076;52.154;10.570;2023-07-30T02:59:29;17.10;99.90
21312;DHT22;18076;52.154;10.570;2023-07-30T03:01:55;17.10;99.90
21312;DHT22;18076;52.154;10.570;2023-07-30T03:04:20;17.00;99.90
21312;DHT22;18076;52.154;10.570;2023-07-30T03:06:45;17.00;99.90
21312;DHT22;18076;52.154;10.570;2023-07-30T03:09:11;16.90;99.90
21312;DHT22;18076;52.154;10.570;2023-07-30T03:11:37;16.90;99.90
21312;DHT22;18076;52.154;10.570;2023-07-30T03:14:02;16.90;99.90
21312;DHT22;18076;52.154;10.570;2023-07-30T03:16:28;16.80;99.90
21312;DHT22;18076;52.154;10.570;2023-07-30T03:18:53;16.80;99.90
21312;DHT22;18076;52.154;10.570;2023-07-30T03:21:19;16.70;99.90
21312;DHT22;18076;52.154;10.570;2023-07-30T03:23:44;16.60;99.90
21312;DHT22;18076;52.154;10.570;2023-07-30T03:26:10;16.60;99.90
21312;DHT22;18076;52.154;10.570;2023-07-30T03:28:36;16.50;99.90
21312;DHT22;18076;52.154;10.570;2023-07-30T03:31:01;16.50;99.90
21312;DHT22;18076;52.154;10.570;2023-07-30T03:33:27;16.50;99.90
21312;DHT22;18076;52.154;10.570;2023-07-30T03:35:52;16.40;99.90
21312;DHT22;18076;52.154;10.570;2023-07-30T03:38:18;16.40;99.90
21312;DHT22;18076;52.154;10.570;2023-07-30T03:40:43;16.30;99.90
21312;DHT22;18076;52.154;10.570;2023-07-30T03:43:09;16.20;99.90
21312;DHT22;18076;52.154;10.570;2023-07-30T03:45:34;16.20;99.90
21312;DHT22;18076;52.154;10.570;2023-07-30T03:48:00;16.20;99.90
21312;DHT22;18076;52.154;10.570;2023-07-30T03:50:27;16.20;99.90
21312;DHT22;18076;52.154;10.570;2023-07-30T03:52:53;16.20;99.90
21312;DHT22;18076;52.154;10.570;2023-07-30T03:55:18;16.10;99.90
21312;DHT22;18076;52.154;10.570;2023-07-30T03:57:44;16.10;99.90
21312;DHT22;18076;52.154;10.570;2023-07-30T04:00:09;16.10;99.90
21312;DHT22;18076;52.154;10.570;2023-07-30T04:02:35;16.10;99.90
21312;DHT22;18076;52.154;10.570;2023-07-30T04:05:00;16.20;99.90
21312;DHT22;18076;52.154;10.570;2023-07-30T04:07:26;16.10;99.90
21312;DHT22;18076;52.154;10.570;2023-07-30T04:09:51;16.20;99.90
21312;DHT22;18076;52.154;10.570;2023-07-30T04:12:17;16.20;99.90
21312;DHT22;18076;52.154;10.570;2023-07-30T04:14:44;16.20;99.90
21312;DHT22;18076;52.154;10.570;2023-07-30T04:17:09;16.20;99.90
21312;DHT22;18076;52.154;10.570;2023-07-30T04:19:35;16.20;99.90
21312;DHT22;18076;52.154;10.570;2023-07-30T04:22:00;16.20;99.90
21312;DHT22;18076;52.154;10.570;2023-07-30T04:24:26;16.20;99.90
21312;DHT22;18076;52.154;10.570;2023-07-30T04:26:51;16.20;99.90
21312;DHT22;18076;52.154;10.570;2023-07-30T04:29:17;16.30;99.90
21312;DHT22;18076;52.154;10.570;2023-07-30T04:31:43;16.30;99.90
21312;DHT22;18076;52.154;10.570;2023-07-30T04:34:08;16.20;99.90
21312;DHT22;18076;52.154;10.570;2023-07-30T04:36:33;16.30;99.90
21312;DHT22;18076;52.154;10.570;2023-07-30T04:38:59;16.30;99.90
21312;DHT22;18076;52.154;10.570;2023-07-30T04:41:24;16.30;99.90
21312;DHT22;18076;52.154;10.570;2023-07-30T04:43:50;16.30;99.90
21312;DHT22;18076;52.154;10.570;2023-07-30T04:46:15;16.40;99.90
21312;DHT22;18076;52.154;10.570;2023-07-30T04:48:41;16.40;99.90
21312;DHT22;18076;52.154;10.570;2023-07-30T04:51:06;16.50;99.90
21312;DHT22;18076;52.154;10.570;2023-07-30T04:53:32;16.50;99.90
21312;DHT22;18076;52.154;10.570;2023-07-30T04:55:58;16.50;99.90
21312;DHT22;18076;52.154;10.570;2023-07-30T04:58:24;16.60;99.90
21312;DHT22;18076;52.154;10.570;2023-07-30T05:00:49;16.60;99.90
21312;DHT22;18076;52.154;10.570;2023-07-30T05:03:15;16.70;99.90
21312;DHT22;18076;52.154;10.570;2023-07-30T05:05:41;16.70;99.90
21312;DHT22;18076;52.154;10.570;2023-07-30T05:08:06;16.70;99.90
21312;DHT22;18076;52.154;10.570;2023-07-30T05:10:32;16.80;99.90
21312;DHT22;18076;52.154;10.570;2023-07-30T05:12:57;16.90;99.90
21312;DHT22;18076;52.154;10.570;2023-07-30T05:15:23;17.00;99.90
21312;DHT22;18076;52.154;10.570;2023-07-30T05:17:48;17.00;99.90
21312;DHT22;18076;52.154;10.570;2023-07-30T05:20:14;17.00;99.90
21312;DHT22;18076;52.154;10.570;2023-07-30T05:22:39;17.10;99.90
21312;DHT22;18076;52.154;10.570;2023-07-30T05:25:05;17.20;99.90
21312;DHT22;18076;52.154;10.570;2023-07-30T05:27:31;17.20;99.90
21312;DHT22;18076;52.154;10.570;2023-07-30T05:29:57;17.30;99.90
21312;DHT22;18076;52.154;10.570;2023-07-30T05:32:22;17.40;99.90
21312;DHT22;18076;52.154;10.570;2023-07-30T05:34:48;17.40;99.90
21312;DHT22;18076;52.154;10.570;2023-07-30T05:37:13;17.50;99.90
21312;DHT22;18076;52.154;10.570;2023-07-30T05:39:39;17.60;99.90
21312;DHT22;18076;52.154;10.570;2023-07-30T05:42:04;17.60;99.90
21312;DHT22;18076;52.154;10.570;2023-07-30T05:44:30;17.80;99.90
21312;DHT22;18076;52.154;10.570;2023-07-30T05:46:55;18.00;99.90
21312;DHT22;18076;52.154;10.570;2023-07-30T05:49:21;18.10;99.90
21312;DHT22;18076;52.154;10.570;2023-07-30T05:51:47;18.20;99.90
21312;DHT22;18076;52.154;10.570;2023-07-30T05:54:12;18.20;99.90
21312;DHT22;18076;52.154;10.570;2023-07-30T05:56:38;18.40;99.90
21312;DHT22;18076;52.154;10.570;2023-07-30T05:59:03;18.50;99.90
21312;DHT22;18076;52.154;10.570;2023-07-30T06:01:29;18.60;99.90
21312;DHT22;18076;52.154;10.570;2023-07-30T06:03:54;18.60;99.90
21312;DHT22;18076;52.154;10.570;2023-07-30T06:06:20;18.60;99.90
21312;DHT22;18076;52.154;10.570;2023-07-30T06:08:52;18.60;99.90
21312;DHT22;18076;52.154;10.570;2023-07-30T06:11:18;18.70;99.90
21312;DHT22;18076;52.154;10.570;2023-07-30T06:13:43;18.80;99.90
21312;DHT22;18076;52.154;10.570;2023-07-30T06:16:09;18.90;99.90
21312;DHT22;18076;52.154;10.570;2023-07-30T06:18:35;19.00;99.90
21312;DHT22;18076;52.154;10.570;2023-07-30T06:21:00;19.00;99.90
21312;DHT22;18076;52.154;10.570;2023-07-30T06:23:26;19.10;99.90
21312;DHT22;18076;52.154;10.570;2023-07-30T06:25:51;19.20;99.90
21312;DHT22;18076;52.154;10.570;2023-07-30T06:28:17;19.40;99.90
21312;DHT22;18076;52.154;10.570;2023-07-30T06:30:42;19.50;99.90
21312;DHT22;18076;52.154;10.570;2023-07-30T06:33:08;19.60;99.90
21312;DHT22;18076;52.154;10.570;2023-07-30T06:35:33;19.70;99.90
21312;DHT22;18076;52.154;10.570;2023-07-30T06:37:59;19.70;99.90
21312;DHT22;18076;52.154;10.570;2023-07-30T06:40:25;19.80;99.90
21312;DHT22;18076;52.154;10.570;2023-07-30T06:42:50;19.80;99.90
21312;DHT22;18076;52.154;10.570;2023-07-30T06:45:16;19.80;99.90
21312;DHT22;18076;52.154;10.570;2023-07-30T06:47:41;19.70;99.90
21312;DHT22;18076;52.154;10.570;2023-07-30T06:50:07;19.70;99.90
21312;DHT22;18076;52.154;10.570;2023-07-30T06:52:35;19.90;99.90
21312;DHT22;18076;52.154;10.570;2023-07-30T06:55:01;19.90;99.90
21312;DHT22;18076;52.154;10.570;2023-07-30T06:57:31;19.80;99.90
21312;DHT22;18076;52.154;10.570;2023-07-30T06:59:56;20.00;99.90
21312;DHT22;18076;52.154;10.570;2023-07-30T07:02:23;20.20;99.90
21312;DHT22;18076;52.154;10.570;2023-07-30T07:04:49;20.40;99.90
21312;DHT22;18076;52.154;10.570;2023-07-30T07:07:15;20.70;99.90
21312;DHT22;18076;52.154;10.570;2023-07-30T07:09:40;20.60;99.90
21312;DHT22;18076;52.154;10.570;2023-07-30T07:12:06;20.50;99.90
21312;DHT22;18076;52.154;10.570;2023-07-30T07:14:32;20.40;99.90
21312;DHT22;18076;52.154;10.570;2023-07-30T07:16:57;20.50;99.90
21312;DHT22;18076;52.154;10.570;2023-07-30T07:19:23;20.60;99.90
21312;DHT22;18076;52.154;10.570;2023-07-30T07:21:48;20.80;99.90
21312;DHT22;18076;52.154;10.570;2023-07-30T07:24:14;21.00;99.90
21312;DHT22;18076;52.154;10.570;2023-07-30T07:26:39;21.20;99.90
21312;DHT22;18076;52.154;10.570;2023-07-30T07:29:05;21.40;99.90
21312;DHT22;18076;52.154;10.570;2023-07-30T07:31:31;21.20;99.90
21312;DHT22;18076;52.154;10.570;2023-07-30T07:33:56;21.30;99.90
21312;DHT22;18076;52.154;10.570;2023-07-30T07:36:22;21.20;99.90
21312;DHT22;18076;52.154;10.570;2023-07-30T07:38:47;21.00;99.90
21312;DHT22;18076;52.154;10.570;2023-07-30T07:41:13;20.90;99.90
21312;DHT22;18076;52.154;10.570;2023-07-30T07:43:40;20.90;99.90
21312;DHT22;18076;52.154;10.570;2023-07-30T07:46:05;20.80;99.90
21312;DHT22;18076;52.154;10.570;2023-07-30T07:48:35;20.80;99.90
21312;DHT22;18076;52.154;10.570;2023-07-30T07:51:00;21.00;99.90
21312;DHT22;18076;52.154;10.570;2023-07-30T07:53:26;21.10;99.90
21312;DHT22;18076;52.154;10.570;2023-07-30T07:55:51;21.30;99.90
21312;DHT22;18076;52.154;10.570;2023-07-30T07:58:17;21.50;99.90
21312;DHT22;18076;52.154;10.570;2023-07-30T08:00:42;21.50;99.90
21312;DHT22;18076;52.154;10.570;2023-07-30T08:03:08;21.40;99.90
21312;DHT22;18076;52.154;10.570;2023-07-30T08:05:33;21.30;99.90
21312;DHT22;18076;52.154;10.570;2023-07-30T08:07:59;21.10;99.90
21312;DHT22;18076;52.154;10.570;2023-07-30T08:10:24;20.90;99.90
21312;DHT22;18076;52.154;10.570;2023-07-30T08:12:50;20.70;99.90
21312;DHT22;18076;52.154;10.570;2023-07-30T08:15:16;20.80;99.90
21312;DHT22;18076;52.154;10.570;2023-07-30T08:17:41;21.00;99.90
21312;DHT22;18076;52.154;10.570;2023-07-30T08:20:07;20.90;99.90
21312;DHT22;18076;52.154;10.570;2023-07-30T08:22:32;21.10;99.90
21312;DHT22;18076;52.154;10.570;2023-07-30T08:24:58;21.20;99.90
21312;DHT22;18076;52.154;10.570;2023-07-30T08:27:24;21.40;99.90
21312;DHT22;18076;52.154;10.570;2023-07-30T08:29:49;21.50;99.90
21312;DHT22;18076;52.154;10.570;2023-07-30T08:32:15;21.80;99.90
21312;DHT22;18076;52.154;10.570;2023-07-30T08:34:40;22.30;99.90
21312;DHT22;18076;52.154;10.570;2023-07-30T08:37:06;22.60;99.90
21312;DHT22;18076;52.154;10.570;2023-07-30T08:39:31;22.80;99.90
21312;DHT22;18076;52.154;10.570;2023-07-30T08:41:57;22.90;99.90
21312;DHT22;18076;52.154;10.570;2023-07-30T08:44:23;23.20;99.90
21312;DHT22;18076;52.154;10.570;2023-07-30T08:46:49;23.30;99.90
21312;DHT22;18076;52.154;10.570;2023-07-30T08:49:14;23.00;99.90
21312;DHT22;18076;52.154;10.570;2023-07-30T08:51:39;22.90;99.90
21312;DHT22;18076;52.154;10.570;2023-07-30T08:54:07;23.10;99.90
21312;DHT22;18076;52.154;10.570;2023-07-30T08:56:34;23.70;99.90
21312;DHT22;18076;52.154;10.570;2023-07-30T08:59:00;24.00;99.90
21312;DHT22;18076;52.154;10.570;2023-07-30T09:01:28;23.90;99.90
21312;DHT22;18076;52.154;10.570;2023-07-30T09:03:54;24.10;99.90
21312;DHT22;18076;52.154;10.570;2023-07-30T09:06:20;24.30;99.90
21312;DHT22;18076;52.154;10.570;2023-07-30T09:08:46;24.30;99.90
21312;DHT22;18076;52.154;10.570;2023-07-30T09:11:11;24.50;99.90
21312;DHT22;18076;52.154;10.570;2023-07-30T09:13:38;24.10;99.90
21312;DHT22;18076;52.154;10.570;2023-07-30T09:16:08;23.80;99.90
21312;DHT22;18076;52.154;10.570;2023-07-30T09:18:38;23.40;99.90
21312;DHT22;18076;52.154;10.570;2023-07-30T09:21:04;23.00;99.90
21312;DHT22;18076;52.154;10.570;2023-07-30T09:23:29;22.80;99.90
21312;DHT22;18076;52.154;10.570;2023-07-30T09:25:57;22.80;99.90
21312;DHT22;18076;52.154;10.570;2023-07-30T09:28:33;22.80;99.90
21312;DHT22;18076;52.154;10.570;2023-07-30T09:31:00;22.60;99.90
21312;DHT22;18076;52.154;10.570;2023-07-30T09:33:26;22.50;99.90
21312;DHT22;18076;52.154;10.570;2023-07-30T09:35:52;22.40;99.90
21312;DHT22;18076;52.154;10.570;2023-07-30T09:38:19;22.30;99.90
21312;DHT22;18076;52.154;10.570;2023-07-30T09:40:46;22.10;99.90
21312;DHT22;18076;52.154;10.570;2023-07-30T09:43:15;22.10;99.90
21312;DHT22;18076;52.154;10.570;2023-07-30T09:45:43;22.10;99.90
21312;DHT22;18076;52.154;10.570;2023-07-30T09:48:29;22.00;99.90
21312;DHT22;18076;52.154;10.570;2023-07-30T09:50:54;21.80;99.90
21312;DHT22;18076;52.154;10.570;2023-07-30T09:53:21;21.80;99.90
21312;DHT22;18076;52.154;10.570;2023-07-30T09:55:46;21.80;99.90
21312;DHT22;18076;52.154;10.570;2023-07-30T09:58:13;21.90;99.90
21312;DHT22;18076;52.154;10.570;2023-07-30T10:00:39;22.10;99.90
21312;DHT22;18076;52.154;10.570;2023-07-30T10:03:06;22.30;99.90
21312;DHT22;18076;52.154;10.570;2023-07-30T10:05:33;22.50;99.90
21312;DHT22;18076;52.154;10.570;2023-07-30T10:08:05;22.60;99.90
21312;DHT22;18076;52.154;10.570;2023-07-30T10:10:33;22.80;99.90
21312;DHT22;18076;52.154;10.570;2023-07-30T10:13:00;22.80;99.90
21312;DHT22;18076;52.154;10.570;2023-07-30T10:15:26;23.00;99.90
21312;DHT22;18076;52.154;10.570;2023-07-30T10:17:58;23.00;99.90
21312;DHT22;18076;52.154;10.570;2023-07-30T10:20:25;23.00;99.90
21312;DHT22;18076;52.154;10.570;2023-07-30T10:22:51;23.10;99.90
21312;DHT22;18076;52.154;10.570;2023-07-30T10:25:17;23.20;99.90
21312;DHT22;18076;52.154;10.570;2023-07-30T10:27:45;23.20;99.90
21312;DHT22;18076;52.154;10.570;2023-07-30T10:30:15;23.00;99.90
21312;DHT22;18076;52.154;10.570;2023-07-30T10:38:12;22.30;99.90
21312;DHT22;18076;52.154;10.570;2023-07-30T10:40:41;21.90;99.90
21312;DHT22;18076;52.154;10.570;2023-07-30T10:43:16;21.60;99.90
21312;DHT22;18076;52.154;10.570;2023-07-30T10:45:48;21.50;99.90
21312;DHT22;18076;52.154;10.570;2023-07-30T10:48:14;21.40;99.90
21312;DHT22;18076;52.154;10.570;2023-07-30T10:50:39;21.20;99.90
21312;DHT22;18076;52.154;10.570;2023-07-30T10:53:07;21.10;99.90
21312;DHT22;18076;52.154;10.570;2023-07-30T10:55:33;20.90;99.90
21312;DHT22;18076;52.154;10.570;2023-07-30T10:57:59;20.80;99.90
21312;DHT22;18076;52.154;10.570;2023-07-30T11:00:27;20.70;99.90
21312;DHT22;18076;52.154;10.570;2023-07-30T11:02:53;20.80;99.90
21312;DHT22;18076;52.154;10.570;2023-07-30T11:05:19;20.90;99.90
21312;DHT22;18076;52.154;10.570;2023-07-30T11:07:51;20.80;99.90
21312;DHT22;18076;52.154;10.570;2023-07-30T11:10:20;20.80;99.90
21312;DHT22;18076;52.154;10.570;2023-07-30T11:12:48;20.80;99.90
21312;DHT22;18076;52.154;10.570;2023-07-30T11:15:14;20.90;99.90
21312;DHT22;18076;52.154;10.570;2023-07-30T11:17:40;20.90;99.90
21312;DHT22;18076;52.154;10.570;2023-07-30T11:20:06;20.80;99.90
21312;DHT22;18076;52.154;10.570;2023-07-30T11:22:33;20.80;99.90
21312;DHT22;18076;52.154;10.570;2023-07-30T11:24:59;20.70;99.90
21312;DHT22;18076;52.154;10.570;2023-07-30T11:27:27;20.60;99.90
21312;DHT22;18076;52.154;10.570;2023-07-30T11:29:56;20.60;99.90
21312;DHT22;18076;52.154;10.570;2023-07-30T11:32:21;20.70;99.90
21312;DHT22;18076;52.154;10.570;2023-07-30T11:34:53;20.60;99.90
21312;DHT22;18076;52.154;10.570;2023-07-30T11:37:20;20.50;99.90
21312;DHT22;18076;52.154;10.570;2023-07-30T11:39:45;20.30;99.90
21312;DHT22;18076;52.154;10.570;2023-07-30T11:42:11;20.20;99.90
21312;DHT22;18076;52.154;10.570;2023-07-30T11:44:39;20.20;99.90
21312;DHT22;18076;52.154;10.570;2023-07-30T11:47:05;20.20;99.90
21312;DHT22;18076;52.154;10.570;2023-07-30T11:49:31;20.20;99.90
21312;DHT22;18076;52.154;10.570;2023-07-30T11:52:09;20.20;99.90
21312;DHT22;18076;52.154;10.570;2023-07-30T11:54:35;20.30;99.90
21312;DHT22;18076;52.154;10.570;2023-07-30T11:57:00;20.20;99.90
21312;DHT22;18076;52.154;10.570;2023-07-30T11:59:26;20.10;99.90
21312;DHT22;18076;52.154;10.570;2023-07-30T12:01:51;20.20;99.90
21312;DHT22;18076;52.154;10.570;2023-07-30T12:04:17;20.40;99.90
21312;DHT22;18076;52.154;10.570;2023-07-30T12:06:44;20.30;99.90
21312;DHT22;18076;52.154;10.570;2023-07-30T12:09:10;20.40;99.90
21312;DHT22;18076;52.154;10.570;2023-07-30T12:11:43;20.40;99.90
21312;DHT22;18076;52.154;10.570;2023-07-30T12:14:09;20.50;99.90
21312;DHT22;18076;52.154;10.570;2023-07-30T12:16:34;20.70;99.90
21312;DHT22;18076;52.154;10.570;2023-07-30T12:19:01;20.70;99.90
21312;DHT22;18076;52.154;10.570;2023-07-30T12:21:26;20.70;99.90
21312;DHT22;18076;52.154;10.570;2023-07-30T12:23:52;20.70;99.90
21312;DHT22;18076;52.154;10.570;2023-07-30T12:26:17;20.70;99.90
21312;DHT22;18076;52.154;10.570;2023-07-30T12:28:43;20.60;99.90
21312;DHT22;18076;52.154;10.570;2023-07-30T12:31:08;20.40;99.90
21312;DHT22;18076;52.154;10.570;2023-07-30T12:33:34;20.50;99.90
21312;DHT22;18076;52.154;10.570;2023-07-30T12:36:00;20.60;99.90
21312;DHT22;18076;52.154;10.570;2023-07-30T12:38:25;20.70;99.90
21312;DHT22;18076;52.154;10.570;2023-07-30T12:40:50;20.70;99.90
21312;DHT22;18076;52.154;10.570;2023-07-30T12:43:16;20.70;99.90
21312;DHT22;18076;52.154;10.570;2023-07-30T12:45:44;20.70;99.90
21312;DHT22;18076;52.154;10.570;2023-07-30T12:48:09;20.80;99.90
21312;DHT22;18076;52.154;10.570;2023-07-30T12:50:35;20.90;99.90
21312;DHT22;18076;52.154;10.570;2023-07-30T12:53:00;21.00;99.90
21312;DHT22;18076;52.154;10.570;2023-07-30T12:55:26;21.10;99.90
21312;DHT22;18076;52.154;10.570;2023-07-30T12:57:51;20.90;99.90
21312;DHT22;18076;52.154;10.570;2023-07-30T13:00:17;21.00;99.90
21312;DHT22;18076;52.154;10.570;2023-07-30T13:02:43;21.10;99.90
21312;DHT22;18076;52.154;10.570;2023-07-30T13:05:08;21.10;99.90
21312;DHT22;18076;52.154;10.570;2023-07-30T13:07:34;21.30;99.90
21312;DHT22;18076;52.154;10.570;2023-07-30T13:10:06;21.20;99.90
21312;DHT22;18076;52.154;10.570;2023-07-30T13:12:32;21.20;99.90
21312;DHT22;18076;52.154;10.570;2023-07-30T13:14:58;21.50;99.90
21312;DHT22;18076;52.154;10.570;2023-07-30T13:17:24;21.90;99.90
21312;DHT22;18076;52.154;10.570;2023-07-30T13:19:49;22.40;99.90
21312;DHT22;18076;52.154;10.570;2023-07-30T13:22:15;22.60;99.90
21312;DHT22;18076;52.154;10.570;2023-07-30T13:24:40;22.80;99.90
21312;DHT22;18076;52.154;10.570;2023-07-30T13:27:06;22.90;99.90
21312;DHT22;18076;52.154;10.570;2023-07-30T13:29:31;23.00;99.90
21312;DHT22;18076;52.154;10.570;2023-07-30T13:31:57;23.00;99.90
21312;DHT22;18076;52.154;10.570;2023-07-30T13:34:22;23.20;99.90
21312;DHT22;18076;52.154;10.570;2023-07-30T13:36:48;23.30;99.90
21312;DHT22;18076;52.154;10.570;2023-07-30T13:39:13;23.20;99.90
21312;DHT22;18076;52.154;10.570;2023-07-30T13:41:39;23.30;99.90
21312;DHT22;18076;52.154;10.570;2023-07-30T13:44:04;23.60;99.90
21312;DHT22;18076;52.154;10.570;2023-07-30T13:46:33;23.90;99.90
21312;DHT22;18076;52.154;10.570;2023-07-30T13:48:58;24.00;99.90
21312;DHT22;18076;52.154;10.570;2023-07-30T13:51:24;24.00;99.90
21312;DHT22;18076;52.154;10.570;2023-07-30T13:53:49;23.90;99.90
21312;DHT22;18076;52.154;10.570;2023-07-30T13:56:15;23.90;99.90
21312;DHT22;18076;52.154;10.570;2023-07-30T13:58:40;24.10;99.90
21312;DHT22;18076;52.154;10.570;2023-07-30T14:01:06;24.30;99.90
21312;DHT22;18076;52.154;10.570;2023-07-30T14:03:34;24.40;99.90
21312;DHT22;18076;52.154;10.570;2023-07-30T14:06:00;24.10;99.90
21312;DHT22;18076;52.154;10.570;2023-07-30T14:08:26;24.30;99.90
21312;DHT22;18076;52.154;10.570;2023-07-30T14:10:51;24.60;99.90
21312;DHT22;18076;52.154;10.570;2023-07-30T14:13:17;24.50;99.90
21312;DHT22;18076;52.154;10.570;2023-07-30T14:15:43;24.10;99.90
21312;DHT22;18076;52.154;10.570;2023-07-30T14:18:10;24.20;99.90
21312;DHT22;18076;52.154;10.570;2023-07-30T14:20:35;24.20;99.90
21312;DHT22;18076;52.154;10.570;2023-07-30T14:23:03;24.20;99.90
21312;DHT22;18076;52.154;10.570;2023-07-30T14:25:29;24.10;99.90
21312;DHT22;18076;52.154;10.570;2023-07-30T14:27:55;24.30;99.90
21312;DHT22;18076;52.154;10.570;2023-07-30T14:30:20;24.50;99.90
21312;DHT22;18076;52.154;10.570;2023-07-30T14:32:46;24.30;99.90
21312;DHT22;18076;52.154;10.570;2023-07-30T14:35:11;24.00;99.90
21312;DHT22;18076;52.154;10.570;2023-07-30T14:37:37;23.90;99.90
21312;DHT22;18076;52.154;10.570;2023-07-30T14:40:02;23.80;99.90
21312;DHT22;18076;52.154;10.570;2023-07-30T14:42:28;23.90;99.90
21312;DHT22;18076;52.154;10.570;2023-07-30T14:44:54;24.00;99.90
21312;DHT22;18076;52.154;10.570;2023-07-30T14:47:19;23.90;99.90
21312;DHT22;18076;52.154;10.570;2023-07-30T14:49:47;23.70;99.90
21312;DHT22;18076;52.154;10.570;2023-07-30T14:52:13;23.50;99.90
21312;DHT22;18076;52.154;10.570;2023-07-30T14:54:38;23.30;99.90
21312;DHT22;18076;52.154;10.570;2023-07-30T14:57:05;23.40;99.90
21312;DHT22;18076;52.154;10.570;2023-07-30T14:59:31;23.50;99.90
21312;DHT22;18076;52.154;10.570;2023-07-30T15:01:56;23.30;99.90
21312;DHT22;18076;52.154;10.570;2023-07-30T15:04:22;23.30;99.90
21312;DHT22;18076;52.154;10.570;2023-07-30T15:06:48;23.20;99.90
21312;DHT22;18076;52.154;10.570;2023-07-30T15:09:14;23.00;99.90
21312;DHT22;18076;52.154;10.570;2023-07-30T15:11:40;22.90;99.90
21312;DHT22;18076;52.154;10.570;2023-07-30T15:14:06;22.80;99.90